Terminal Aerodrome Forecast
Issued by NWS Shreveport, LA

Home | Current Version | Previous Version | Text Only | Print | Product List | Glossary On
Versions: 1 2 3 4 5 6 7 8 9 10 11 12 13
000
FTUS44 KSHV 272300
TAFGGG
TAF
KGGG 272325Z 2800/2824 VRB03KT P6SM SKC
     FM280600 14003KT P6SM FEW250
     FM281500 16008KT P6SM SCT250
     FM281800 19010G16KT P6SM SCT250=

USA.gov is the U.S. government's official web portal to all federal, state and local government web resources and services.